Time;durP1;ratioP1;P1;durP2;ratioP2;P2;SDS_P1;SDS_P2;PMS_P1;PMS_P2;Temp;Humidity;BMP_temperature;BMP_pressure;BME280_temperature;BME280_humidity;BME280_pressure;Samples;Min_cycle;Max_cycle;Signal;HPM_P1;HPM_P2
2021/05/10 00:00:45;;;;;;;1.30;1.10;;;18.90;64.80;;;;;;5084626;28;20115;-80
2021/05/10 00:03:11;;;;;;;2.80;1.08;;;18.80;63.80;;;;;;5087279;28;20020;-80
2021/05/10 00:05:37;;;;;;;2.05;1.17;;;18.80;63.10;;;;;;5086880;28;20031;-80
2021/05/10 00:08:03;;;;;;;3.05;1.50;;;18.90;62.60;;;;;;5087685;28;20400;-80
2021/05/10 00:10:29;;;;;;;3.15;1.08;;;18.90;62.70;;;;;;5085618;28;20102;-80
2021/05/10 00:12:54;;;;;;;1.80;1.30;;;18.90;62.50;;;;;;5088247;28;20028;-80
2021/05/10 00:15:20;;;;;;;2.10;1.40;;;18.90;62.10;;;;;;5085436;28;20375;-81
2021/05/10 00:17:46;;;;;;;2.15;1.10;;;18.90;63.80;;;;;;5086528;28;20425;-80
2021/05/10 00:20:12;;;;;;;1.77;1.10;;;18.70;63.10;;;;;;5086086;28;20073;-80
2021/05/10 00:22:38;;;;;;;4.43;1.42;;;18.70;63.90;;;;;;5086584;28;20142;-81
2021/05/10 00:25:04;;;;;;;2.70;1.50;;;18.70;64.00;;;;;;5086578;28;20056;-80
2021/05/10 00:27:30;;;;;;;4.65;1.15;;;18.60;64.30;;;;;;5087501;28;20036;-81
2021/05/10 00:29:55;;;;;;;2.53;1.30;;;18.50;64.20;;;;;;5089347;28;20032;-81
2021/05/10 00:32:20;;;;;;;8.73;1.88;;;18.50;63.80;;;;;;5090816;28;20032;-81
2021/05/10 00:34:46;;;;;;;1.50;1.38;;;18.50;65.00;;;;;;5090669;28;20085;-81
2021/05/10 00:37:11;;;;;;;6.97;1.10;;;18.40;65.30;;;;;;5091549;28;20020;-81
2021/05/10 00:39:37;;;;;;;4.57;1.50;;;18.30;67.10;;;;;;5091189;28;20024;-81
2021/05/10 00:42:03;;;;;;;2.13;1.30;;;18.30;65.50;;;;;;5090563;28;20376;-81
2021/05/10 00:44:28;;;;;;;1.60;1.20;;;18.20;66.80;;;;;;5089835;28;20452;-80
2021/05/10 00:46:54;;;;;;;7.00;1.50;;;18.20;67.80;;;;;;5090369;28;20039;-81
2021/05/10 00:49:21;;;;;;;1.95;1.48;;;18.10;67.20;;;;;;5089831;28;20055;-81
2021/05/10 00:51:47;;;;;;;4.90;1.45;;;18.00;66.90;;;;;;5088355;28;20048;-81
2021/05/10 00:54:12;;;;;;;2.75;1.52;;;18.10;66.30;;;;;;5089030;28;20024;-81
2021/05/10 00:56:38;;;;;;;11.75;1.67;;;18.00;66.70;;;;;;5091324;28;20436;-81
2021/05/10 00:59:04;;;;;;;1.42;1.30;;;18.00;67.50;;;;;;5089742;28;20491;-81
2021/05/10 01:01:29;;;;;;;3.25;1.33;;;17.90;68.40;;;;;;5089107;28;20046;-81
2021/05/10 01:03:55;;;;;;;2.28;1.20;;;17.80;67.90;;;;;;5089879;28;20020;-81
2021/05/10 01:06:21;;;;;;;1.92;1.30;;;17.80;69.90;;;;;;5090088;28;20367;-81
2021/05/10 01:08:48;;;;;;;1.42;1.27;;;17.80;68.60;;;;;;5089119;28;20024;-82
2021/05/10 01:11:14;;;;;;;4.03;1.00;;;17.80;67.80;;;;;;5089809;28;20032;-81
2021/05/10 01:13:39;;;;;;;2.38;1.40;;;17.80;67.50;;;;;;5090015;28;20112;-81
2021/05/10 01:16:05;;;;;;;1.92;1.30;;;17.80;68.40;;;;;;5091097;28;20114;-81
2021/05/10 01:18:31;;;;;;;1.83;1.40;;;17.80;68.20;;;;;;5088689;28;20449;-81
2021/05/10 01:20:59;;;;;;;2.63;1.30;;;17.70;68.60;;;;;;5088069;28;20036;-81
2021/05/10 01:23:29;;;;;;;1.48;1.17;;;17.70;67.60;;;;;;5087031;28;20020;-81
2021/05/10 01:25:55;;;;;;;1.70;1.23;;;17.70;69.20;;;;;;5089030;28;20386;-81
2021/05/10 01:28:21;;;;;;;2.78;1.52;;;17.70;67.70;;;;;;5089988;28;20036;-81
2021/05/10 01:30:50;;;;;;;3.22;1.40;;;17.70;67.10;;;;;;5086777;28;20032;-81
2021/05/10 01:33:18;;;;;;;1.77;1.20;;;17.70;67.20;;;;;;5090293;28;20074;-81
2021/05/10 01:35:46;;;;;;;2.25;1.40;;;17.70;67.90;;;;;;5088504;28;20028;-81
2021/05/10 01:38:12;;;;;;;5.65;1.38;;;17.70;68.30;;;;;;5088856;28;20040;-81
2021/05/10 01:40:38;;;;;;;2.17;1.20;;;17.60;68.70;;;;;;5089486;28;20509;-81
2021/05/10 01:43:04;;;;;;;2.55;1.33;;;17.60;67.90;;;;;;5087948;28;20101;-81
2021/05/10 01:45:30;;;;;;;1.30;1.20;;;17.50;68.20;;;;;;5089291;28;20042;-81
2021/05/10 01:48:01;;;;;;;1.58;1.38;;;17.50;69.10;;;;;;5090072;28;20449;-80
2021/05/10 01:50:27;;;;;;;3.53;1.50;;;17.40;71.90;;;;;;5088149;28;20502;-81
2021/05/10 01:52:53;;;;;;;1.70;1.15;;;17.20;69.70;;;;;;5090537;28;20746;-81
2021/05/10 01:55:22;;;;;;;2.58;1.27;;;17.30;70.00;;;;;;5086365;28;20382;-81
2021/05/10 01:57:49;;;;;;;1.20;1.00;;;17.30;69.50;;;;;;5086809;28;20062;-81
2021/05/10 02:00:18;;;;;;;2.60;1.42;;;17.20;69.90;;;;;;5086172;28;20052;-81
2021/05/10 02:02:43;;;;;;;1.63;1.23;;;17.20;69.90;;;;;;5087223;28;20080;-81
2021/05/10 02:05:14;;;;;;;1.23;1.10;;;17.10;71.60;;;;;;5090499;28;20110;-81
2021/05/10 02:07:54;;;;;;;2.45;1.02;;;17.00;70.80;;;;;;5088917;28;20055;-81
2021/05/10 02:10:41;;;;;;;1.45;1.27;;;17.00;69.40;;;;;;5087952;28;20040;-81
2021/05/10 02:13:18;;;;;;;1.00;1.00;;;17.00;70.70;;;;;;5087731;28;20032;-81
2021/05/10 02:15:46;;;;;;;2.88;1.40;;;17.00;70.90;;;;;;5088347;28;20024;-80
2021/05/10 02:18:13;;;;;;;2.80;1.15;;;16.90;72.20;;;;;;5090020;28;20441;-81
2021/05/10 02:20:39;;;;;;;4.07;1.30;;;16.80;69.90;;;;;;5087605;28;20028;-81
2021/05/10 02:23:19;;;;;;;3.90;1.52;;;16.80;71.70;;;;;;5086217;28;20119;-81
2021/05/10 02:25:47;;;;;;;4.07;1.58;;;16.70;71.00;;;;;;5085231;28;20023;-81
2021/05/10 02:28:14;;;;;;;2.15;1.10;;;16.70;71.70;;;;;;5088241;28;20040;-81
2021/05/10 02:30:41;;;;;;;2.10;1.20;;;16.70;71.50;;;;;;5088045;28;20051;-81
2021/05/10 02:33:10;;;;;;;1.58;1.23;;;16.60;71.80;;;;;;5089719;28;20036;-81
2021/05/10 02:35:36;;;;;;;6.03;1.30;;;16.60;72.80;;;;;;5088192;28;20103;-81
2021/05/10 02:38:02;;;;;;;3.28;1.10;;;16.50;72.60;;;;;;5089127;28;20119;-81
2021/05/10 02:40:28;;;;;;;2.38;1.20;;;16.50;72.90;;;;;;5088431;28;20465;-81
2021/05/10 02:42:53;;;;;;;1.30;1.20;;;16.40;74.60;;;;;;5087586;28;20103;-81
2021/05/10 02:45:19;;;;;;;3.25;1.75;;;16.30;75.40;;;;;;5088705;28;20031;-81
2021/05/10 02:47:46;;;;;;;1.63;1.48;;;16.20;75.90;;;;;;5087982;28;20144;-80
2021/05/10 02:50:18;;;;;;;1.75;1.38;;;16.10;75.70;;;;;;5086597;28;20482;-81
2021/05/10 02:52:44;;;;;;;2.80;1.75;;;16.00;77.00;;;;;;5088459;28;20036;-81
2021/05/10 02:55:10;;;;;;;3.97;1.58;;;15.90;78.60;;;;;;5088909;28;20536;-81
2021/05/10 02:57:36;;;;;;;1.38;1.10;;;15.90;79.10;;;;;;5088139;28;20012;-81
2021/05/10 03:00:08;;;;;;;2.30;1.50;;;15.80;79.50;;;;;;5083738;28;20020;-81
2021/05/10 03:02:34;;;;;;;4.95;1.60;;;15.70;80.00;;;;;;5085463;28;20103;-81
2021/05/10 03:05:00;;;;;;;1.98;1.20;;;15.70;79.40;;;;;;5086929;28;20186;-81
2021/05/10 03:07:25;;;;;;;3.03;1.17;;;15.70;80.20;;;;;;5087936;28;20141;-81
2021/05/10 03:09:51;;;;;;;1.95;1.33;;;15.60;81.30;;;;;;5085765;28;20119;-81
2021/05/10 03:12:16;;;;;;;3.67;1.40;;;15.60;80.90;;;;;;5088683;28;20055;-81
2021/05/10 03:14:42;;;;;;;2.97;1.60;;;15.50;81.30;;;;;;5086539;28;20039;-81
2021/05/10 03:17:07;;;;;;;9.55;1.98;;;15.50;81.60;;;;;;5086190;28;20036;-81
2021/05/10 03:19:33;;;;;;;2.70;1.52;;;15.40;81.60;;;;;;5086491;28;20028;-81
2021/05/10 03:21:58;;;;;;;1.80;1.38;;;15.40;81.90;;;;;;5087478;28;20055;-81
2021/05/10 03:24:24;;;;;;;1.30;1.15;;;15.40;83.70;;;;;;5088775;28;20036;-81
2021/05/10 03:26:50;;;;;;;2.03;1.83;;;15.30;82.20;;;;;;5087024;28;20028;-81
2021/05/10 03:29:16;;;;;;;1.73;1.08;;;15.20;84.60;;;;;;5086646;28;20553;-82
2021/05/10 03:31:41;;;;;;;1.55;1.20;;;15.20;85.30;;;;;;5084451;28;20035;-81
2021/05/10 03:34:07;;;;;;;1.27;1.00;;;15.20;82.40;;;;;;5087756;28;20547;-81
2021/05/10 03:36:32;;;;;;;6.65;1.40;;;15.20;85.10;;;;;;5086739;28;20028;-81
2021/05/10 03:38:59;;;;;;;2.33;1.10;;;15.20;85.50;;;;;;5087352;28;20384;-81
2021/05/10 03:41:25;;;;;;;9.25;1.50;;;15.20;84.70;;;;;;5086620;28;20032;-81
2021/05/10 03:43:50;;;;;;;2.03;1.38;;;15.20;82.00;;;;;;5087683;28;20089;-82
2021/05/10 03:46:16;;;;;;;1.45;0.98;;;15.30;83.10;;;;;;5085452;28;20048;-81
2021/05/10 03:48:42;;;;;;;1.88;1.27;;;15.30;81.00;;;;;;5087405;28;20428;-82
2021/05/10 03:51:07;;;;;;;1.48;1.25;;;15.40;81.60;;;;;;5085880;28;20048;-81
2021/05/10 03:53:33;;;;;;;1.42;0.93;;;15.40;81.10;;;;;;5086111;28;20032;-82
2021/05/10 03:55:59;;;;;;;2.95;1.38;;;15.50;79.80;;;;;;5082339;28;20502;-82
2021/05/10 03:58:24;;;;;;;3.08;1.00;;;15.50;77.20;;;;;;5086992;28;20020;-81
2021/05/10 04:00:59;;;;;;;1.70;1.20;;;15.70;76.30;;;;;;5083814;28;20055;-81
2021/05/10 04:03:38;;;;;;;2.75;1.60;;;15.70;76.80;;;;;;5082094;28;20487;-81
2021/05/10 04:06:30;;;;;;;2.92;1.27;;;15.70;78.00;;;;;;5090772;28;20028;-81
2021/05/10 04:09:24;;;;;;;2.30;1.10;;;15.70;78.00;;;;;;5090383;28;20628;-81
2021/05/10 04:14:34;;;;;;;2.33;1.02;;;15.80;76.20;;;;;;5090592;28;20116;-81
2021/05/10 04:16:59;;;;;;;2.25;1.30;;;15.70;77.20;;;;;;5088900;28;20115;-82
2021/05/10 04:19:25;;;;;;;2.67;1.05;;;15.70;77.10;;;;;;5089787;28;20039;-81
2021/05/10 04:21:51;;;;;;;2.20;1.58;;;15.70;77.40;;;;;;5088567;28;20085;-82
2021/05/10 04:24:16;;;;;;;2.70;1.52;;;15.70;74.90;;;;;;5091772;28;20023;-81
2021/05/10 04:26:41;;;;;;;1.52;1.23;;;15.80;76.50;;;;;;5089233;28;20439;-78
2021/05/10 04:29:07;;;;;;;3.05;1.35;;;15.90;74.60;;;;;;5090493;28;20121;-84
2021/05/10 04:31:32;;;;;;;12.38;1.42;;;16.00;73.40;;;;;;5087028;28;20016;-82
2021/05/10 04:34:00;;;;;;;1.15;1.00;;;16.00;73.50;;;;;;5090324;28;20024;-79
2021/05/10 04:36:26;;;;;;;3.03;1.00;;;16.00;73.20;;;;;;5083707;28;20024;-79
2021/05/10 04:38:51;;;;;;;1.10;1.00;;;16.00;72.60;;;;;;5091630;28;20054;-78
2021/05/10 04:41:17;;;;;;;5.40;1.52;;;16.10;71.90;;;;;;5088026;28;20108;-78
2021/05/10 04:43:43;;;;;;;3.22;1.50;;;16.10;72.50;;;;;;5089404;28;20424;-79
2021/05/10 04:46:09;;;;;;;2.42;1.35;;;16.20;70.80;;;;;;5091810;28;20035;-80
2021/05/10 04:48:34;;;;;;;3.67;1.17;;;16.20;73.10;;;;;;5076208;28;20028;-85
2021/05/10 04:51:01;;;;;;;2.88;1.55;;;16.20;71.50;;;;;;5085981;28;20052;-82
2021/05/10 04:53:26;;;;;;;1.77;1.10;;;16.30;69.70;;;;;;5090045;28;20057;-82
2021/05/10 04:55:52;;;;;;;2.75;1.02;;;16.40;70.20;;;;;;5091397;28;20028;-84
2021/05/10 04:58:17;;;;;;;1.38;1.08;;;16.40;70.10;;;;;;5089791;28;20177;-85
2021/05/10 05:00:43;;;;;;;0.90;0.90;;;16.50;69.10;;;;;;5086505;28;20043;-78
2021/05/10 05:03:08;;;;;;;2.22;1.30;;;16.50;69.90;;;;;;5089875;28;20520;-82
2021/05/10 05:05:34;;;;;;;3.55;1.15;;;16.60;67.90;;;;;;5088552;28;20082;-76
2021/05/10 05:07:59;;;;;;;1.10;1.00;;;16.60;67.90;;;;;;5090763;28;20545;-89
2021/05/10 05:10:25;;;;;;;2.40;1.13;;;16.70;66.80;;;;;;5088642;28;20474;-81
2021/05/10 05:12:51;;;;;;;3.33;1.35;;;16.70;68.30;;;;;;5089995;28;20478;-79
2021/05/10 05:15:18;;;;;;;4.45;1.10;;;16.70;67.10;;;;;;5088547;28;20066;-76
2021/05/10 05:18:27;;;;;;;1.27;1.17;;;16.80;67.50;;;;;;5090200;28;20043;-82
2021/05/10 05:20:52;;;;;;;2.30;1.27;;;16.80;68.50;;;;;;5072752;28;20537;-80
2021/05/10 05:23:23;;;;;;;3.72;1.70;;;16.80;67.80;;;;;;5090529;28;20024;-76
2021/05/10 05:25:59;;;;;;;3.40;1.30;;;16.80;67.60;;;;;;5089028;28;20032;-79
2021/05/10 05:28:26;;;;;;;3.55;0.98;;;16.90;67.60;;;;;;5090951;28;20081;-78
2021/05/10 05:30:53;;;;;;;2.97;1.15;;;16.90;67.40;;;;;;5088471;28;20027;-79
2021/05/10 05:33:18;;;;;;;1.10;1.00;;;16.90;66.50;;;;;;5090504;28;20161;-78
2021/05/10 05:35:44;;;;;;;1.48;1.10;;;17.00;67.40;;;;;;5089664;28;20123;-78
2021/05/10 05:38:11;;;;;;;1.10;0.98;;;17.00;65.80;;;;;;5090789;28;20024;-80
2021/05/10 05:40:38;;;;;;;2.72;1.00;;;17.10;65.40;;;;;;5086334;28;20032;-81
2021/05/10 05:43:03;;;;;;;1.48;1.10;;;17.10;66.90;;;;;;5090383;28;20062;-79
2021/05/10 05:45:30;;;;;;;2.17;1.08;;;17.10;64.90;;;;;;5088448;28;20108;-81
2021/05/10 05:47:55;;;;;;;1.20;1.10;;;17.10;66.30;;;;;;5088105;28;20032;-80
2021/05/10 05:50:21;;;;;;;4.57;1.30;;;17.20;66.50;;;;;;5088315;28;20036;-83
2021/05/10 05:52:46;;;;;;;1.85;1.10;;;17.20;65.10;;;;;;5089770;28;20110;-82
2021/05/10 05:55:13;;;;;;;1.52;1.17;;;17.20;65.10;;;;;;5088547;28;20107;-81
2021/05/10 06:00:35;;;;;;;1.52;1.13;;;17.30;65.10;;;;;;5081698;28;20207;-79
2021/05/10 06:03:00;;;;;;;1.67;1.33;;;17.40;63.80;;;;;;5087819;28;20028;-78
2021/05/10 06:05:26;;;;;;;1.98;1.05;;;17.40;65.10;;;;;;5088758;28;20514;-80
2021/05/10 06:07:51;;;;;;;4.22;0.88;;;17.50;63.10;;;;;;5088012;28;20043;-80
2021/05/10 06:10:22;;;;;;;3.50;1.25;;;17.50;63.10;;;;;;5089161;28;20032;-81
2021/05/10 06:12:50;;;;;;;1.58;1.15;;;17.60;62.10;;;;;;5086926;28;20028;-79
2021/05/10 06:15:17;;;;;;;1.85;1.10;;;17.60;63.40;;;;;;5089252;28;20163;-80
2021/05/10 06:17:43;;;;;;;2.33;1.10;;;17.60;63.60;;;;;;5087959;28;20020;-78
2021/05/10 06:20:11;;;;;;;4.95;1.40;;;17.60;63.90;;;;;;5089415;28;20051;-79
2021/05/10 06:22:38;;;;;;;3.70;1.00;;;17.70;62.80;;;;;;5086886;28;20101;-86
2021/05/10 06:25:05;;;;;;;1.48;1.10;;;17.70;63.60;;;;;;5088581;28;20402;-82
2021/05/10 06:27:31;;;;;;;1.25;1.10;;;17.80;62.70;;;;;;5087943;28;20114;-82
2021/05/10 06:29:56;;;;;;;2.25;1.27;;;17.80;64.10;;;;;;5085424;28;20028;-82
2021/05/10 06:32:22;;;;;;;2.42;1.05;;;17.90;62.50;;;;;;5087693;28;20024;-81
2021/05/10 06:34:47;;;;;;;2.47;1.35;;;18.00;62.80;;;;;;5087174;28;20036;-81
2021/05/10 06:37:18;;;;;;;1.58;1.02;;;18.00;62.40;;;;;;5077203;28;20027;-81
2021/05/10 06:39:44;;;;;;;1.85;1.45;;;18.00;61.50;;;;;;5086297;28;20028;-81
2021/05/10 06:42:10;;;;;;;2.45;1.00;;;18.10;60.70;;;;;;5072602;28;20098;-80
2021/05/10 06:44:57;;;;;;;1.23;1.10;;;18.10;60.90;;;;;;5077865;28;20020;-80
2021/05/10 06:47:23;;;;;;;1.42;0.95;;;18.20;61.50;;;;;;5079650;28;20106;-80
2021/05/10 06:49:48;;;;;;;1.42;0.90;;;18.20;62.60;;;;;;5081527;28;20107;-80
2021/05/10 06:52:14;;;;;;;1.48;1.20;;;18.20;64.30;;;;;;5079889;28;20127;-81
2021/05/10 06:54:39;;;;;;;1.40;1.10;;;18.30;62.60;;;;;;5080239;28;20036;-80
2021/05/10 06:57:08;;;;;;;1.42;1.23;;;18.30;61.40;;;;;;5079920;28;20216;-80
2021/05/10 06:59:34;;;;;;;1.98;1.10;;;18.40;61.80;;;;;;5077124;28;20122;-80
2021/05/10 07:01:59;;;;;;;2.80;1.20;;;18.40;61.90;;;;;;5078378;28;20669;-80
2021/05/10 07:04:25;;;;;;;4.93;1.52;;;18.50;61.00;;;;;;5078155;28;20028;-80
2021/05/10 07:06:50;;;;;;;1.50;1.10;;;18.60;60.70;;;;;;5077800;28;20035;-82
2021/05/10 07:09:16;;;;;;;1.30;1.15;;;18.70;60.50;;;;;;5081085;28;20020;-80
2021/05/10 07:11:41;;;;;;;3.95;1.00;;;18.70;61.00;;;;;;5080446;28;20030;-80
2021/05/10 07:14:09;;;;;;;2.58;1.10;;;18.80;59.90;;;;;;5086511;28;20023;-77
2021/05/10 07:16:35;;;;;;;1.67;1.08;;;18.90;59.70;;;;;;5084802;28;20073;-81
2021/05/10 07:19:01;;;;;;;2.45;1.42;;;18.90;60.00;;;;;;5087725;28;20028;-83
2021/05/10 07:21:26;;;;;;;1.90;1.30;;;18.90;59.30;;;;;;5087053;28;20024;-81
2021/05/10 07:23:52;;;;;;;4.93;1.10;;;19.00;60.90;;;;;;5080785;28;20024;-81
2021/05/10 07:26:18;;;;;;;1.63;1.20;;;19.10;62.00;;;;;;5082631;28;20032;-81
2021/05/10 07:28:44;;;;;;;1.27;1.17;;;19.30;59.90;;;;;;5085905;28;20544;-81
2021/05/10 07:31:10;;;;;;;1.55;1.20;;;19.30;59.20;;;;;;5087342;28;20024;-82
2021/05/10 07:33:35;;;;;;;2.00;1.17;;;19.40;59.30;;;;;;5085540;28;20016;-82
2021/05/10 07:36:01;;;;;;;5.07;0.90;;;19.40;58.50;;;;;;5084176;28;20093;-81
2021/05/10 07:38:29;;;;;;;2.85;1.20;;;19.40;59.70;;;;;;5088321;28;20031;-81
2021/05/10 07:40:55;;;;;;;1.60;1.30;;;19.40;59.60;;;;;;5084788;28;20103;-82
2021/05/10 07:43:20;;;;;;;1.55;1.17;;;19.50;59.10;;;;;;5073929;28;20095;-83
2021/05/10 07:45:46;;;;;;;2.95;1.17;;;19.60;58.30;;;;;;5070782;28;20021;-83
2021/05/10 07:48:11;;;;;;;2.17;1.10;;;19.50;59.20;;;;;;5079357;28;20025;-82
2021/05/10 07:50:37;;;;;;;7.00;1.35;;;19.60;60.00;;;;;;5086122;28;20047;-84
2021/05/10 07:53:02;;;;;;;3.30;1.45;;;19.60;59.70;;;;;;5084507;28;20532;-83
2021/05/10 07:55:29;;;;;;;3.28;1.55;;;19.70;58.50;;;;;;5077311;28;20035;-83
2021/05/10 07:57:54;;;;;;;1.55;1.00;;;19.80;58.90;;;;;;5079944;28;20031;-83
2021/05/10 08:00:27;;;;;;;2.28;1.30;;;19.90;59.70;;;;;;5075491;28;20038;-84
2021/05/10 08:03:16;;;;;;;1.70;1.15;;;19.90;59.00;;;;;;5078465;28;20017;-84
2021/05/10 08:05:45;;;;;;;2.80;1.17;;;20.00;58.20;;;;;;5080917;28;20059;-85
2021/05/10 08:08:14;;;;;;;7.82;1.50;;;20.10;58.00;;;;;;5081363;28;20372;-83
2021/05/10 08:10:40;;;;;;;4.82;1.33;;;20.10;58.80;;;;;;5079860;28;20047;-78
2021/05/10 08:13:09;;;;;;;3.20;1.27;;;20.20;59.10;;;;;;5078610;28;20039;-79
2021/05/10 08:15:35;;;;;;;4.47;1.77;;;20.20;59.00;;;;;;5081918;28;20107;-76
2021/05/10 08:18:00;;;;;;;1.88;1.38;;;20.30;58.20;;;;;;5080312;28;20115;-77
2021/05/10 08:20:26;;;;;;;1.92;1.20;;;20.30;59.60;;;;;;5087279;28;20074;-76
2021/05/10 08:22:51;;;;;;;5.07;1.70;;;20.30;58.70;;;;;;5085433;28;20546;-77
2021/05/10 08:25:17;;;;;;;3.65;1.23;;;20.40;59.60;;;;;;5088789;28;20402;-79
2021/05/10 08:27:42;;;;;;;2.30;1.48;;;20.40;57.90;;;;;;5086687;28;20073;-85
2021/05/10 08:30:10;;;;;;;2.20;1.20;;;20.50;57.80;;;;;;5086443;28;20093;-78
2021/05/10 08:32:36;;;;;;;2.13;1.23;;;20.50;57.90;;;;;;5078066;28;20484;-84
2021/05/10 08:35:03;;;;;;;2.58;1.20;;;20.60;59.00;;;;;;5082604;28;20126;-81
2021/05/10 08:37:29;;;;;;;2.15;1.38;;;20.60;57.70;;;;;;5082033;28;20020;-84
2021/05/10 08:39:56;;;;;;;1.65;1.17;;;20.70;59.40;;;;;;5081091;28;20081;-84
2021/05/10 08:42:48;;;;;;;1.65;1.50;;;20.80;58.50;;;;;;5082568;28;20074;-84
2021/05/10 08:45:22;;;;;;;2.55;1.27;;;20.90;61.00;;;;;;5073115;28;20037;-79
2021/05/10 08:47:47;;;;;;;2.78;1.10;;;21.10;57.90;;;;;;5075196;28;20032;-79
2021/05/10 08:50:14;;;;;;;3.90;1.30;;;21.20;58.00;;;;;;5082820;28;20035;-80
2021/05/10 08:52:42;;;;;;;4.45;1.20;;;21.30;59.80;;;;;;5078186;28;20033;-80
2021/05/10 08:55:08;;;;;;;1.90;1.40;;;21.40;58.30;;;;;;5076055;28;20028;-79
2021/05/10 08:57:34;;;;;;;1.38;1.20;;;21.50;59.10;;;;;;5073967;28;20178;-79
2021/05/10 08:59:59;;;;;;;2.25;1.35;;;21.60;56.50;;;;;;5078729;28;20107;-80
2021/05/10 09:02:34;;;;;;;2.17;1.13;;;21.60;58.50;;;;;;5085255;28;20070;-79
2021/05/10 09:05:17;;;;;;;1.30;1.10;;;21.80;57.30;;;;;;5091154;28;20063;-80
2021/05/10 09:07:44;;;;;;;1.95;1.30;;;21.80;59.00;;;;;;5078752;28;20032;-80
2021/05/10 09:10:14;;;;;;;2.78;1.20;;;21.90;57.50;;;;;;5081835;28;20036;-80
2021/05/10 09:12:52;;;;;;;2.15;1.23;;;22.00;58.40;;;;;;5086636;28;20182;-79
2021/05/10 09:15:29;;;;;;;2.10;1.35;;;22.00;56.70;;;;;;5089479;28;21650;-80
2021/05/10 09:18:01;;;;;;;8.90;1.52;;;22.00;55.00;;;;;;5085480;28;20409;-84
2021/05/10 09:20:30;;;;;;;2.42;1.40;;;22.00;56.80;;;;;;5085833;28;20554;-79
2021/05/10 09:23:01;;;;;;;1.55;1.05;;;22.20;55.80;;;;;;5080016;28;20028;-83
2021/05/10 09:25:29;;;;;;;;;;;22.20;55.70;;;;;;5087760;28;20111;-83
2021/05/10 09:28:08;;;;;;;1.38;1.20;;;22.30;55.40;;;;;;5089304;28;20010;-82
2021/05/10 09:30:34;;;;;;;1.85;1.30;;;22.30;56.80;;;;;;5088044;28;20505;-82
2021/05/10 09:32:59;;;;;;;3.55;1.40;;;22.40;57.50;;;;;;5084367;28;20036;-83
2021/05/10 09:35:27;;;;;;;1.50;1.33;;;22.50;54.70;;;;;;5081725;28;20059;-83
2021/05/10 09:37:57;;;;;;;1.73;1.40;;;22.60;57.50;;;;;;5083381;28;20016;-82
2021/05/10 09:40:24;;;;;;;1.45;1.33;;;22.80;57.70;;;;;;5088140;28;20024;-81
2021/05/10 09:42:52;;;;;;;3.80;1.77;;;22.90;56.10;;;;;;5079229;28;20047;-83
2021/05/10 09:45:44;;;;;;;2.45;1.40;;;23.20;54.20;;;;;;5081837;28;20036;-83
2021/05/10 09:48:29;;;;;;;1.45;1.35;;;23.30;55.40;;;;;;5076847;28;20032;-82
2021/05/10 09:50:58;;;;;;;1.55;1.27;;;23.30;52.50;;;;;;5078613;28;20052;-82
2021/05/10 09:53:32;;;;;;;1.92;1.38;;;23.40;53.70;;;;;;5076167;28;20059;-82
2021/05/10 09:55:59;;;;;;;1.30;1.20;;;23.50;52.00;;;;;;5075277;28;20025;-83
2021/05/10 09:58:35;;;;;;;3.38;1.92;;;23.50;52.00;;;;;;5076719;28;20029;-83
2021/05/10 10:01:00;;;;;;;1.27;1.15;;;23.40;52.20;;;;;;5081802;28;20103;-83
2021/05/10 10:03:46;;;;;;;2.40;1.20;;;23.50;53.60;;;;;;5075193;28;20103;-82
2021/05/10 10:06:13;;;;;;;5.15;1.33;;;23.60;52.50;;;;;;5078544;28;20387;-83
2021/05/10 10:08:44;;;;;;;6.85;1.55;;;23.60;53.20;;;;;;5076969;28;20033;-82
2021/05/10 10:11:22;;;;;;;1.90;1.20;;;23.70;53.20;;;;;;5077491;28;20054;-82
2021/05/10 10:13:49;;;;;;;3.10;1.50;;;23.70;51.80;;;;;;5089461;28;20423;-82
2021/05/10 10:16:25;;;;;;;5.18;1.40;;;23.60;52.00;;;;;;5084074;28;20119;-83
2021/05/10 10:18:52;;;;;;;8.23;1.10;;;23.60;52.80;;;;;;5085654;28;20028;-83
2021/05/10 10:21:19;;;;;;;2.17;1.45;;;23.70;52.60;;;;;;5084126;28;20020;-82
2021/05/10 10:23:55;;;;;;;1.20;1.13;;;23.80;53.10;;;;;;5082037;28;20012;-83
2021/05/10 10:26:26;;;;;;;1.42;1.20;;;23.90;55.70;;;;;;5085818;28;20032;-82
2021/05/10 10:28:52;;;;;;;3.22;1.33;;;24.10;56.00;;;;;;5081908;28;20028;-79
2021/05/10 10:31:27;;;;;;;2.47;1.38;;;24.30;56.80;;;;;;5086998;28;20039;-84
2021/05/10 10:34:03;;;;;;;2.65;1.70;;;24.70;54.30;;;;;;5087563;28;20148;-85
2021/05/10 10:36:35;;;;;;;1.88;1.33;;;24.80;50.00;;;;;;5088092;28;20028;-84
2021/05/10 10:39:23;;;;;;;4.03;1.23;;;25.00;51.80;;;;;;5087664;28;20563;-84
2021/05/10 10:42:02;;;;;;;1.20;1.10;;;25.20;49.90;;;;;;5087703;28;20070;-82
2021/05/10 10:44:46;;;;;;;2.58;1.63;;;25.40;52.80;;;;;;5087358;28;20081;-79
2021/05/10 10:47:36;;;;;;;3.90;1.10;;;25.60;51.50;;;;;;5089391;28;20075;-82
2021/05/10 10:50:03;;;;;;;5.38;1.42;;;25.70;50.50;;;;;;5083100;28;20183;-81
2021/05/10 10:52:30;;;;;;;1.35;1.25;;;25.80;50.30;;;;;;5087651;28;20062;-80
2021/05/10 10:55:33;;;;;;;1.20;1.10;;;25.90;48.10;;;;;;5088989;28;20077;-81
2021/05/10 10:58:12;;;;;;;1.45;1.20;;;26.00;48.80;;;;;;5087249;28;20052;-81
2021/05/10 11:01:05;;;;;;;1.33;1.13;;;26.00;48.30;;;;;;5088298;28;20040;-80
2021/05/10 11:03:31;;;;;;;1.20;1.10;;;26.10;49.90;;;;;;5083987;28;20155;-83
2021/05/10 11:05:57;;;;;;;13.10;1.27;;;26.20;48.40;;;;;;5085236;28;20046;-81
2021/05/10 11:08:43;;;;;;;2.13;1.20;;;26.40;49.00;;;;;;5087329;28;20478;-82
2021/05/10 11:11:10;;;;;;;2.97;1.35;;;26.60;47.40;;;;;;5087358;28;20020;-85
2021/05/10 11:13:40;;;;;;;1.70;1.48;;;26.70;47.30;;;;;;5087908;28;20032;-82
2021/05/10 11:16:14;;;;;;;3.63;1.40;;;27.00;45.50;;;;;;5087096;28;20135;-83
2021/05/10 11:18:45;;;;;;;3.58;1.23;;;27.30;45.90;;;;;;5085823;28;20059;-83
2021/05/10 11:21:23;;;;;;;1.52;1.40;;;27.60;46.90;;;;;;5088525;28;20364;-83
2021/05/10 11:23:53;;;;;;;1.48;1.38;;;27.80;46.90;;;;;;5085177;28;20389;-83
2021/05/10 11:26:49;;;;;;;1.60;1.40;;;28.20;45.10;;;;;;5086981;28;20024;-83
2021/05/10 11:29:27;;;;;;;1.77;1.52;;;28.60;44.80;;;;;;5084968;28;20107;-80
2021/05/10 11:31:55;;;;;;;2.05;1.58;;;29.20;42.40;;;;;;5083589;28;20020;-81
2021/05/10 11:34:30;;;;;;;1.70;1.48;;;29.50;43.00;;;;;;5082812;28;20076;-82
2021/05/10 11:36:58;;;;;;;1.58;1.30;;;29.80;41.50;;;;;;5081464;28;20034;-82
2021/05/10 11:39:29;;;;;;;1.77;1.20;;;30.10;40.90;;;;;;5085923;28;20028;-82
2021/05/10 11:42:00;;;;;;;2.55;1.77;;;30.20;42.00;;;;;;5087997;28;20020;-82
2021/05/10 11:44:43;;;;;;;1.55;1.30;;;30.60;40.00;;;;;;5082447;28;20027;-82
2021/05/10 11:47:10;;;;;;;1.88;1.13;;;31.30;36.80;;;;;;5088325;28;20056;-82
2021/05/10 11:49:43;;;;;;;5.35;1.38;;;32.00;36.20;;;;;;5088004;28;20383;-82
2021/05/10 11:52:17;;;;;;;1.45;1.35;;;32.60;37.50;;;;;;5087962;28;20119;-80
2021/05/10 11:54:45;;;;;;;1.50;1.40;;;33.30;35.90;;;;;;5087834;28;20035;-82
2021/05/10 11:57:12;;;;;;;1.75;1.35;;;33.80;35.70;;;;;;5087325;28;20028;-82
2021/05/10 12:02:09;;;;;;;2.25;1.45;;;33.30;33.50;;;;;;5088214;28;20111;-82
2021/05/10 12:04:36;;;;;;;1.50;1.40;;;32.70;34.70;;;;;;5087713;28;20485;-82
2021/05/10 12:07:01;;;;;;;1.55;1.00;;;33.00;36.20;;;;;;5079573;28;20065;-82
2021/05/10 12:09:34;;;;;;;4.50;1.70;;;33.80;33.10;;;;;;5087792;28;20028;-81
2021/05/10 12:12:01;;;;;;;2.97;1.60;;;34.60;33.40;;;;;;5087507;28;20699;-79
2021/05/10 12:14:27;;;;;;;4.82;1.30;;;35.30;32.30;;;;;;5088034;28;20024;-79
2021/05/10 12:17:12;;;;;;;2.20;1.55;;;35.90;31.40;;;;;;5087856;28;20036;-79
2021/05/10 12:19:58;;;;;;;1.77;1.13;;;36.60;29.50;;;;;;5087864;28;20051;-79
2021/05/10 12:22:33;;;;;;;2.05;1.40;;;37.40;30.40;;;;;;5088073;28;20024;-79
2021/05/10 12:25:06;;;;;;;1.58;1.48;;;37.80;29.70;;;;;;5091226;28;20020;-79
2021/05/10 12:27:34;;;;;;;2.80;1.60;;;38.30;28.70;;;;;;5091446;28;20429;-80
2021/05/10 12:30:00;;;;;;;4.15;1.65;;;38.60;27.70;;;;;;5091179;28;20762;-79
2021/05/10 12:32:26;;;;;;;1.67;1.20;;;38.60;28.30;;;;;;5092265;28;20111;-79
2021/05/10 12:34:52;;;;;;;1.67;1.48;;;38.80;28.60;;;;;;5090409;28;20098;-81
2021/05/10 12:37:18;;;;;;;4.55;1.50;;;39.30;28.80;;;;;;5090477;28;20036;-81
2021/05/10 12:39:44;;;;;;;1.95;1.25;;;39.60;27.90;;;;;;5090344;28;20478;-81
2021/05/10 12:42:20;;;;;;;1.73;1.33;;;39.80;27.60;;;;;;5091753;28;20028;-82
2021/05/10 12:44:58;;;;;;;1.60;1.30;;;40.10;27.20;;;;;;5090480;28;20020;-79
2021/05/10 12:47:49;;;;;;;1.45;1.35;;;40.40;27.80;;;;;;5084516;28;20021;-79
2021/05/10 12:50:32;;;;;;;2.45;1.60;;;40.20;26.30;;;;;;5087056;28;20027;-80
2021/05/10 12:53:02;;;;;;;2.45;1.70;;;40.20;26.60;;;;;;5087983;28;20020;-80
2021/05/10 12:55:27;;;;;;;2.28;1.83;;;40.10;26.20;;;;;;5091154;28;20032;-80
2021/05/10 12:57:53;;;;;;;1.52;1.42;;;40.20;26.80;;;;;;5091059;28;20035;-80
2021/05/10 13:00:29;;;;;;;15.77;2.00;;;40.20;26.40;;;;;;5090642;28;20571;-79
2021/05/10 13:02:55;;;;;;;1.88;1.45;;;39.80;26.40;;;;;;5091288;28;20024;-80
2021/05/10 13:05:38;;;;;;;3.33;1.42;;;39.80;26.80;;;;;;5090686;28;20387;-80